Time;durP1;ratioP1;P1;durP2;ratioP2;P2;SDS_P1;SDS_P2;PMS_P1;PMS_P2;Temp;Humidity;BMP_temperature;BMP_pressure;BME280_temperature;BME280_humidity;BME280_pressure;Samples;Min_cycle;Max_cycle;Signal;HPM_P1;HPM_P2
2022/05/14 00:02:13;;;;;;;2.90;1.20;;;;;;;13.12;78.02;101497.94;4934071;29;20056;-81
2022/05/14 00:04:41;;;;;;;1.63;1.25;;;;;;;13.11;80.79;101490.13;4934075;29;20048;-78
2022/05/14 00:07:10;;;;;;;3.00;1.42;;;;;;;13.08;80.24;101492.59;4933527;29;20052;-78
2022/05/14 00:09:40;;;;;;;1.63;1.40;;;;;;;13.01;79.53;101499.34;4933860;29;20056;-76
2022/05/14 00:15:09;;;;;;;3.00;1.15;;;;;;;12.96;81.66;101493.09;4921342;29;20107;-77
2022/05/14 00:17:38;;;;;;;2.63;1.23;;;;;;;12.91;81.98;101490.38;4933511;29;20605;-78
2022/05/14 00:20:08;;;;;;;1.55;1.10;;;;;;;12.88;80.75;101492.00;4933769;29;20111;-78
2022/05/14 00:22:36;;;;;;;1.20;0.90;;;;;;;12.86;81.51;101488.47;4934982;29;20048;-77
2022/05/14 00:25:08;;;;;;;2.35;1.00;;;;;;;12.82;81.61;101484.00;4936063;29;20055;-77
2022/05/14 00:27:42;;;;;;;2.30;1.17;;;;;;;12.78;82.52;101483.91;4932497;29;20070;-77
2022/05/14 00:30:13;;;;;;;1.65;0.90;;;;;;;12.75;80.31;101481.19;4934504;29;20135;-78
2022/05/14 00:32:41;;;;;;;2.13;1.00;;;;;;;12.66;80.43;101475.72;4952019;29;20082;-78
2022/05/14 00:35:11;;;;;;;1.17;0.93;;;;;;;12.64;80.45;101471.31;4952784;28;20113;-76
2022/05/14 00:37:40;;;;;;;1.13;0.70;;;;;;;12.56;79.14;101458.97;4952981;29;20055;-77
2022/05/14 00:40:14;;;;;;;1.80;1.13;;;;;;;12.51;81.49;101457.06;4954330;29;20140;-78
2022/05/14 00:42:43;;;;;;;1.30;0.98;;;;;;;12.46;81.97;101448.22;4952398;29;20055;-77
2022/05/14 00:45:14;;;;;;;2.03;1.10;;;;;;;12.43;82.64;101450.72;4952635;29;20059;-78
2022/05/14 00:47:45;;;;;;;1.38;0.90;;;;;;;12.40;83.70;101442.84;4952157;29;20077;-77
2022/05/14 00:50:22;;;;;;;1.60;1.10;;;;;;;12.42;86.49;101443.78;4952449;29;20141;-76
2022/05/14 00:52:52;;;;;;;1.15;0.82;;;;;;;12.41;89.91;101429.03;4951609;29;20047;-76
2022/05/14 00:55:22;;;;;;;1.73;1.05;;;;;;;12.41;88.84;101431.63;4936836;29;20537;-77
2022/05/14 00:57:51;;;;;;;1.55;1.00;;;;;;;12.36;89.07;101424.56;4932846;29;20134;-76
2022/05/14 01:00:24;;;;;;;1.38;0.98;;;;;;;12.35;92.63;101421.94;4932809;29;20056;-76
2022/05/14 01:02:53;;;;;;;1.77;0.90;;;;;;;12.34;99.26;101414.97;4932450;29;20083;-76
2022/05/14 01:05:23;;;;;;;1.42;0.88;;;;;;;12.30;98.54;101411.41;4932873;29;20048;-77
2022/05/14 01:07:56;;;;;;;2.33;0.90;;;;;;;12.26;98.59;101400.88;4932419;29;20750;-77
2022/05/14 01:10:31;;;;;;;1.33;0.90;;;;;;;12.35;100.00;101409.84;4932381;29;20058;-77
2022/05/14 01:13:02;;;;;;;1.85;1.00;;;;;;;12.33;100.00;101398.50;4932038;29;20405;-77
2022/05/14 01:15:43;;;;;;;1.23;0.88;;;;;;;12.29;100.00;101396.66;4932565;29;20047;-77
2022/05/14 01:18:12;;;;;;;1.27;1.00;;;;;;;12.29;100.00;101396.66;4933474;29;20501;-77
2022/05/14 01:20:42;;;;;;;1.90;1.10;;;;;;;12.23;100.00;101375.72;4934517;29;20525;-78
2022/05/14 01:23:24;;;;;;;1.20;0.80;;;;;;;12.32;100.00;101378.59;4932188;29;20529;-78
2022/05/14 01:26:30;;;;;;;2.58;1.05;;;;;;;12.35;100.00;101376.09;4933300;29;20142;-78
2022/05/14 01:29:03;;;;;;;1.58;0.95;;;;;;;12.41;100.00;101380.59;4933270;29;20047;-77
2022/05/14 01:31:32;;;;;;;1.75;1.42;;;;;;;12.43;100.00;101367.66;4943491;29;20055;-77
2022/05/14 01:34:02;;;;;;;2.05;1.02;;;;;;;12.40;100.00;101358.06;4950496;29;20059;-78
2022/05/14 01:36:31;;;;;;;1.05;0.85;;;;;;;12.44;100.00;101365.13;4951465;28;20101;-78
2022/05/14 01:39:00;;;;;;;1.80;0.82;;;;;;;12.43;100.00;101350.38;4950399;28;20063;-78
2022/05/14 01:41:30;;;;;;;2.72;1.25;;;;;;;12.40;100.00;101350.28;4951380;29;20055;-78
2022/05/14 01:43:59;;;;;;;1.08;0.80;;;;;;;12.38;100.00;101353.69;4950354;29;20717;-78
2022/05/14 01:46:27;;;;;;;1.30;0.70;;;;;;;12.36;100.00;101344.09;4949804;29;20110;-77
2022/05/14 01:48:56;;;;;;;1.25;0.70;;;;;;;12.39;100.00;101345.03;4951237;29;20058;-78
2022/05/14 01:51:25;;;;;;;1.48;0.85;;;;;;;12.39;100.00;101345.03;4951464;29;20505;-78
2022/05/14 01:53:54;;;;;;;1.23;0.85;;;;;;;12.38;100.00;101343.28;4946823;29;20059;-77
2022/05/14 01:56:22;;;;;;;1.80;0.80;;;;;;;12.35;100.00;101344.97;4932185;29;20127;-76
2022/05/14 01:58:53;;;;;;;1.08;0.88;;;;;;;12.35;100.00;101344.09;4932081;29;20059;-76
2022/05/14 02:01:23;;;;;;;1.20;0.80;;;;;;;12.35;100.00;101339.75;4931465;29;20056;-77
2022/05/14 02:03:55;;;;;;;1.77;1.00;;;;;;;12.24;100.00;101330.75;4931397;29;20062;-76
2022/05/14 02:06:25;;;;;;;1.25;0.68;;;;;;;12.20;100.00;101341.88;4931460;29;20051;-76
2022/05/14 02:08:54;;;;;;;1.90;1.00;;;;;;;12.17;100.00;101339.19;4931630;29;20052;-77
2022/05/14 02:11:23;;;;;;;0.90;0.70;;;;;;;12.17;100.00;101336.59;4931471;29;20600;-76
2022/05/14 02:13:55;;;;;;;1.88;0.80;;;;;;;12.17;100.00;101338.31;4931777;29;20516;-76
2022/05/14 02:16:24;;;;;;;0.90;0.60;;;;;;;12.12;100.00;101335.56;4935491;29;20051;-76
2022/05/14 02:18:53;;;;;;;1.58;0.80;;;;;;;12.08;100.00;101324.19;4931671;29;20052;-76
2022/05/14 02:21:24;;;;;;;1.55;1.00;;;;;;;12.08;100.00;101318.13;4931678;29;20061;-76
2022/05/14 02:23:53;;;;;;;4.13;1.40;;;;;;;12.07;100.00;101316.34;4932161;29;20056;-75
2022/05/14 02:26:22;;;;;;;1.77;1.00;;;;;;;12.08;100.00;101312.94;4932203;29;20051;-76
2022/05/14 02:28:52;;;;;;;2.50;1.00;;;;;;;12.07;100.00;101316.34;4931508;29;20054;-77
2022/05/14 02:31:21;;;;;;;1.80;1.00;;;;;;;12.07;100.00;101326.72;4934241;29;20047;-76
2022/05/14 02:33:50;;;;;;;1.67;0.80;;;;;;;12.05;100.00;101311.13;4931144;29;20568;-77
2022/05/14 02:36:19;;;;;;;2.85;1.10;;;;;;;11.98;100.00;101300.50;4934951;28;20059;-77
2022/05/14 02:38:48;;;;;;;2.35;1.30;;;;;;;11.91;100.00;101302.91;4950413;29;20051;-76
2022/05/14 02:41:17;;;;;;;1.38;1.00;;;;;;;11.90;100.00;101290.75;4950748;29;20122;-76
2022/05/14 02:43:46;;;;;;;2.63;1.38;;;;;;;11.90;100.00;101290.75;4950124;29;20409;-76
2022/05/14 02:46:16;;;;;;;1.73;1.08;;;;;;;11.90;100.00;101292.47;4950917;29;20454;-76
2022/05/14 02:48:45;;;;;;;1.67;0.95;;;;;;;11.86;100.00;101281.06;4950447;29;20495;-76
2022/05/14 02:51:13;;;;;;;1.92;1.17;;;;;;;11.89;100.00;101275.16;4952715;28;20043;-76
2022/05/14 02:53:42;;;;;;;1.90;0.90;;;;;;;11.88;100.00;101282.03;4951699;29;20125;-77
2022/05/14 02:56:10;;;;;;;1.63;1.25;;;;;;;11.86;100.00;101283.66;4935019;29;20051;-76
2022/05/14 03:01:26;;;;;;;3.08;1.05;;;;;;;11.82;100.00;101263.69;4933621;29;20062;-76
2022/05/14 03:03:54;;;;;;;1.60;1.08;;;;;;;11.79;100.00;101262.69;4935196;29;20070;-76
2022/05/14 03:06:23;;;;;;;1.65;1.00;;;;;;;11.77;100.00;101265.22;4934863;29;20052;-76
2022/05/14 03:08:52;;;;;;;2.38;1.33;;;;;;;11.76;100.00;101271.25;4934709;29;20115;-76
2022/05/14 03:11:20;;;;;;;2.28;1.15;;;;;;;11.74;100.00;101265.13;4935548;29;20054;-77
2022/05/14 03:13:49;;;;;;;2.45;1.38;;;;;;;11.70;100.00;101269.34;4938598;29;20055;-77
2022/05/14 03:16:21;;;;;;;1.42;1.08;;;;;;;11.68;100.00;101270.09;4935818;29;20083;-76
2022/05/14 03:18:51;;;;;;;2.10;1.13;;;;;;;11.67;100.00;101265.75;4934301;29;20091;-77
2022/05/14 03:21:19;;;;;;;2.95;1.30;;;;;;;11.66;100.00;101264.88;4934636;29;20143;-77
2022/05/14 03:23:49;;;;;;;2.55;0.98;;;;;;;11.64;100.00;101258.78;4934204;29;20060;-77
2022/05/14 03:26:18;;;;;;;2.47;1.48;;;;;;;11.63;100.00;101250.94;4933872;29;20142;-77
2022/05/14 03:28:48;;;;;;;2.67;1.40;;;;;;;11.61;100.00;101247.41;4934546;29;20051;-77
2022/05/14 03:31:17;;;;;;;1.85;1.15;;;;;;;11.61;100.00;101252.59;4944292;29;20408;-77
2022/05/14 03:33:45;;;;;;;1.92;0.98;;;;;;;11.61;100.00;101243.09;4953413;29;20055;-77
2022/05/14 03:36:16;;;;;;;2.58;1.40;;;;;;;11.52;100.00;101233.34;4953261;28;20048;-76
2022/05/14 03:38:45;;;;;;;2.63;1.20;;;;;;;11.59;100.00;101251.66;4953414;29;20053;-77
2022/05/14 03:41:13;;;;;;;4.05;1.30;;;;;;;11.56;100.00;101244.66;4953319;29;20505;-76
2022/05/14 03:43:44;;;;;;;1.60;1.17;;;;;;;11.53;100.00;101244.56;4953626;29;20556;-76
2022/05/14 03:46:12;;;;;;;1.67;1.15;;;;;;;11.52;100.00;101246.28;4953713;29;20098;-77
2022/05/14 03:48:42;;;;;;;1.65;1.20;;;;;;;11.51;100.00;101247.09;4952934;29;20141;-77
2022/05/14 03:51:11;;;;;;;2.78;1.35;;;;;;;11.50;100.00;101235.00;4953830;29;20469;-76
2022/05/14 03:53:42;;;;;;;1.75;1.13;;;;;;;11.46;100.00;101238.28;4951645;29;20050;-77
2022/05/14 03:56:12;;;;;;;1.75;1.08;;;;;;;11.47;100.00;101228.81;4934199;29;20181;-76
2022/05/14 03:58:41;;;;;;;2.38;1.10;;;;;;;11.45;100.00;101221.00;4934176;29;20501;-76
2022/05/14 04:01:10;;;;;;;2.35;1.25;;;;;;;11.46;100.00;101221.88;4933524;29;20048;-77
2022/05/14 04:03:39;;;;;;;2.38;1.25;;;;;;;11.38;100.00;101216.41;4932731;29;20043;-76
2022/05/14 04:06:08;;;;;;;1.50;1.30;;;;;;;11.32;100.00;101209.34;4933927;29;20087;-77
2022/05/14 04:08:37;;;;;;;2.85;1.10;;;;;;;11.30;100.00;101215.28;4934239;29;20498;-79
2022/05/14 04:11:08;;;;;;;3.85;1.45;;;;;;;11.26;100.00;101206.53;4936023;29;20094;-77
2022/05/14 04:13:37;;;;;;;1.80;1.30;;;;;;;11.21;100.00;101200.31;4933528;29;20363;-78
2022/05/14 04:16:06;;;;;;;2.00;1.00;;;;;;;11.18;100.00;101200.22;4933574;29;20600;-76
2022/05/14 04:18:35;;;;;;;2.30;1.55;;;;;;;11.19;100.00;101201.09;4933587;29;20453;-77
2022/05/14 04:21:04;;;;;;;1.92;1.20;;;;;;;11.20;100.00;101197.66;4932864;29;20063;-77
2022/05/14 04:23:34;;;;;;;2.15;1.15;;;;;;;11.21;100.00;101189.09;4933479;29;20048;-77
2022/05/14 04:26:03;;;;;;;1.20;1.00;;;;;;;11.20;100.00;101185.63;4933536;29;20047;-77
2022/05/14 04:28:33;;;;;;;1.42;1.05;;;;;;;11.18;100.00;101189.88;4933849;29;20086;-77
2022/05/14 04:31:02;;;;;;;2.50;0.95;;;;;;;11.17;100.00;101188.09;4941502;29;20047;-77
2022/05/14 04:33:30;;;;;;;4.07;1.30;;;;;;;11.18;100.00;101189.88;4953415;29;20102;-76
2022/05/14 04:35:59;;;;;;;0.98;0.88;;;;;;;11.19;100.00;101181.25;4953268;28;20118;-77
2022/05/14 04:38:27;;;;;;;2.03;1.02;;;;;;;11.18;100.00;101186.38;4953395;29;20501;-77
2022/05/14 04:40:56;;;;;;;1.50;1.10;;;;;;;11.17;100.00;101180.31;4952324;29;20118;-77
2022/05/14 04:43:24;;;;;;;2.55;1.35;;;;;;;11.17;100.00;101177.72;4952436;29;20114;-77
2022/05/14 04:45:54;;;;;;;3.95;1.50;;;;;;;11.15;100.00;101179.38;4951953;29;20489;-77
2022/05/14 04:48:23;;;;;;;3.55;1.30;;;;;;;11.16;100.00;101181.16;4952774;29;20149;-77
2022/05/14 04:50:51;;;;;;;1.65;0.82;;;;;;;11.08;100.00;101173.09;4952736;29;20055;-78
2022/05/14 04:53:20;;;;;;;2.47;1.48;;;;;;;11.01;100.00;101178.03;4952325;29;20086;-78
2022/05/14 04:55:51;;;;;;;1.60;1.20;;;;;;;11.00;100.00;101174.56;4933975;29;20891;-77
2022/05/14 04:58:20;;;;;;;2.25;0.90;;;;;;;11.02;100.00;101162.56;4932610;29;20391;-77
2022/05/14 05:00:48;;;;;;;4.13;1.35;;;;;;;11.03;100.00;101169.50;4932587;29;20059;-76
2022/05/14 05:03:17;;;;;;;2.13;1.10;;;;;;;11.05;100.00;101175.59;4933101;29;20055;-78
2022/05/14 05:05:47;;;;;;;2.35;1.20;;;;;;;11.06;100.00;101174.78;4933868;29;20051;-77
2022/05/14 05:08:15;;;;;;;2.08;1.15;;;;;;;11.07;100.00;101166.19;4935223;29;20052;-76
2022/05/14 05:10:44;;;;;;;1.92;1.17;;;;;;;11.08;100.00;101154.97;4933343;29;20142;-76
2022/05/14 05:13:14;;;;;;;3.15;1.30;;;;;;;11.08;100.00;101154.97;4932806;29;20051;-75
2022/05/14 05:15:43;;;;;;;1.83;1.20;;;;;;;11.09;100.00;101146.41;4932618;29;20463;-78
2022/05/14 05:18:13;;;;;;;1.80;1.20;;;;;;;11.10;100.00;101150.75;4932122;29;20051;-83
2022/05/14 05:20:55;;;;;;;2.13;1.13;;;;;;;11.04;100.00;101129.84;4932404;29;20431;-76
2022/05/14 05:23:25;;;;;;;1.00;0.90;;;;;;;11.10;100.00;101123.97;4932317;29;20062;-76
2022/05/14 05:25:54;;;;;;;2.17;1.40;;;;;;;11.06;100.00;101120.41;4932017;29;20074;-77
2022/05/14 05:28:23;;;;;;;3.30;1.25;;;;;;;11.07;100.00;101122.16;4932172;29;20119;-77
2022/05/14 05:30:52;;;;;;;2.92;1.50;;;;;;;11.08;100.00;101125.63;4938094;29;20102;-77
2022/05/14 05:33:22;;;;;;;3.05;1.23;;;;;;;11.10;100.00;101140.38;4951139;29;20051;-76
2022/05/14 05:35:59;;;;;;;3.50;1.40;;;;;;;11.10;100.00;101145.56;4951337;28;20679;-76
2022/05/14 05:38:27;;;;;;;3.03;1.38;;;;;;;11.11;100.00;101126.63;4913086;29;20095;-77
2022/05/14 05:40:57;;;;;;;2.22;1.38;;;;;;;11.11;100.00;101134.38;4911842;29;20259;-76
2022/05/14 05:43:26;;;;;;;3.08;1.80;;;;;;;11.08;100.00;101131.66;4912312;29;20084;-76
2022/05/14 05:45:56;;;;;;;3.22;1.52;;;;;;;11.10;100.00;101135.19;4912396;29;20055;-76
2022/05/14 05:48:25;;;;;;;2.35;1.52;;;;;;;11.11;100.00;101129.22;4913056;29;20143;-77
2022/05/14 05:50:54;;;;;;;2.10;1.10;;;;;;;11.12;100.00;101122.31;4912649;29;20059;-77
2022/05/14 05:56:46;;;;;;;1.52;0.90;;;;;;;11.15;100.00;101116.34;4912272;29;20063;-76
2022/05/14 05:58:58;;;;;;;2.13;1.10;;;;;;;11.15;100.00;101106.00;4913912;29;20071;-76
2022/05/14 06:01:27;;;;;;;2.22;1.40;;;;;;;11.13;100.00;101099.88;4913334;29;20099;-76
2022/05/14 06:03:56;;;;;;;3.10;1.30;;;;;;;11.14;100.00;101102.53;4918294;29;20054;-77
2022/05/14 06:06:25;;;;;;;2.53;1.30;;;;;;;11.17;100.00;101101.75;4933069;29;20394;-76
2022/05/14 06:08:55;;;;;;;1.55;1.05;;;;;;;11.17;100.00;101096.56;4932439;29;20110;-76
2022/05/14 06:11:25;;;;;;;3.78;1.42;;;;;;;11.14;100.00;101110.28;4932521;29;20060;-78
2022/05/14 06:13:54;;;;;;;1.98;1.20;;;;;;;11.11;100.00;101095.53;4931726;29;20059;-77
2022/05/14 06:16:23;;;;;;;5.18;1.50;;;;;;;11.11;100.00;101103.31;4931830;29;20052;-77
2022/05/14 06:18:51;;;;;;;1.90;1.13;;;;;;;11.14;100.00;101099.06;4932028;29;20051;-78
2022/05/14 06:21:20;;;;;;;2.00;1.23;;;;;;;11.14;100.00;101097.34;4931937;29;20058;-78
2022/05/14 06:23:49;;;;;;;3.13;1.50;;;;;;;11.09;100.00;101091.16;4931570;29;20079;-76
2022/05/14 06:26:19;;;;;;;2.70;1.42;;;;;;;11.09;100.00;101102.38;4930682;29;20052;-77
2022/05/14 06:28:47;;;;;;;3.28;1.45;;;;;;;11.10;100.00;101096.34;4931538;29;20056;-77
2022/05/14 06:31:17;;;;;;;2.42;1.42;;;;;;;11.10;100.00;101096.34;4940972;29;20617;-78
2022/05/14 06:33:46;;;;;;;1.52;1.10;;;;;;;11.13;100.00;101097.28;4950155;29;20114;-77
2022/05/14 06:36:22;;;;;;;3.17;1.65;;;;;;;11.14;100.00;101105.13;4950429;28;20106;-78
2022/05/14 06:38:50;;;;;;;4.28;1.75;;;;;;;11.16;100.00;101102.59;4949962;29;20055;-78
2022/05/14 06:41:20;;;;;;;5.70;2.15;;;;;;;11.19;100.00;101103.53;4950058;29;20459;-78
2022/05/14 06:43:49;;;;;;;4.65;2.30;;;;;;;11.22;100.00;101111.41;4950102;29;20477;-77
2022/05/14 06:46:17;;;;;;;3.88;2.35;;;;;;;11.25;100.00;101098.56;4950051;29;20043;-78
2022/05/14 06:48:46;;;;;;;3.45;1.95;;;;;;;11.27;100.00;101101.19;4941123;29;20051;-78
2022/05/14 06:51:19;;;;;;;2.10;1.25;;;;;;;11.23;100.00;101120.09;4930982;29;20146;-77
2022/05/14 06:53:49;;;;;;;3.20;1.88;;;;;;;11.22;100.00;101113.13;4931143;29;20052;-78
2022/05/14 06:56:22;;;;;;;2.55;1.38;;;;;;;11.23;100.00;101115.78;4931532;29;20469;-78
2022/05/14 06:58:52;;;;;;;2.55;2.00;;;;;;;11.24;100.00;101117.53;4931381;29;20062;-77
2022/05/14 07:01:21;;;;;;;2.88;1.67;;;;;;;11.26;100.00;101109.81;4934206;29;20063;-78
2022/05/14 07:06:39;;;;;;;6.65;2.35;;;;;;;11.18;100.00;101112.16;4931004;29;20055;-79
2022/05/14 07:09:09;;;;;;;5.45;2.90;;;;;;;11.19;100.00;101106.13;4931130;29;20059;-78
2022/05/14 07:11:41;;;;;;;5.25;2.10;;;;;;;11.21;100.00;101094.13;4931135;29;20119;-78
2022/05/14 07:14:12;;;;;;;4.88;1.90;;;;;;;11.24;100.00;101091.63;4930802;29;20135;-78
2022/05/14 07:16:41;;;;;;;3.75;2.20;;;;;;;11.24;100.00;101098.50;4931202;29;20418;-78
2022/05/14 07:19:10;;;;;;;3.63;2.08;;;;;;;11.27;100.00;101098.59;4931638;29;20413;-78
2022/05/14 07:21:41;;;;;;;4.03;1.80;;;;;;;11.25;100.00;101110.66;4931738;29;20059;-78
2022/05/14 07:24:11;;;;;;;3.65;2.22;;;;;;;11.26;100.00;101109.81;4932158;29;20114;-77
2022/05/14 07:26:42;;;;;;;4.28;1.85;;;;;;;11.27;100.00;101107.28;4931938;29;20087;-78
2022/05/14 07:29:12;;;;;;;3.80;2.28;;;;;;;11.27;100.00;101094.31;4931852;29;20055;-78
2022/05/14 07:31:41;;;;;;;4.18;2.35;;;;;;;11.20;100.00;101076.84;4943893;29;20066;-78
2022/05/14 07:34:10;;;;;;;3.78;2.03;;;;;;;11.17;100.00;101052.53;4950435;29;20074;-78
2022/05/14 07:36:42;;;;;;;3.70;2.33;;;;;;;11.17;100.00;101071.53;4951648;28;20139;-78
2022/05/14 07:39:10;;;;;;;5.07;2.17;;;;;;;11.18;100.00;101064.63;4953530;29;20055;-78
2022/05/14 07:41:44;;;;;;;5.10;2.20;;;;;;;11.21;100.00;101069.94;4953522;29;20752;-78
2022/05/14 07:44:16;;;;;;;3.00;2.15;;;;;;;11.22;100.00;101066.50;4953281;29;20207;-79
2022/05/14 07:46:47;;;;;;;3.08;1.95;;;;;;;11.18;100.00;101060.38;4953527;29;20082;-79
2022/05/14 07:49:18;;;;;;;2.38;1.88;;;;;;;11.22;100.00;101067.38;4953892;29;20465;-79
2022/05/14 07:51:46;;;;;;;4.43;2.35;;;;;;;11.24;100.00;101057.06;4951551;29;20192;-79
2022/05/14 07:54:15;;;;;;;2.88;2.05;;;;;;;11.24;100.00;101073.47;4946669;29;20055;-78
2022/05/14 07:56:45;;;;;;;3.28;2.03;;;;;;;11.24;100.00;101064.84;4933853;29;20493;-79
2022/05/14 07:59:15;;;;;;;3.10;1.80;;;;;;;11.25;100.00;101064.91;4937451;29;20106;-80
2022/05/14 08:01:43;;;;;;;2.70;2.00;;;;;;;11.23;100.00;101063.09;4934083;29;20047;-78
2022/05/14 08:04:12;;;;;;;4.63;1.90;;;;;;;11.25;100.00;101071.81;4933331;29;20506;-78
2022/05/14 08:06:41;;;;;;;5.13;1.90;;;;;;;11.27;100.00;101064.94;4933176;29;20050;-78
2022/05/14 08:09:09;;;;;;;2.97;1.88;;;;;;;11.26;100.00;101073.53;4933393;29;20048;-79
2022/05/14 08:11:38;;;;;;;3.67;1.90;;;;;;;11.15;100.00;101067.13;4933454;29;20059;-79
2022/05/14 08:14:08;;;;;;;3.38;1.90;;;;;;;11.28;100.00;101069.28;4932891;29;20048;-80
2022/05/14 08:16:37;;;;;;;2.15;1.40;;;;;;;11.28;100.00;101064.97;4933500;29;20119;-80
2022/05/14 08:19:06;;;;;;;3.92;2.10;;;;;;;11.28;100.00;101061.53;4933239;29;20060;-79
2022/05/14 08:24:32;;;;;;;4.28;2.22;;;;;;;11.26;100.00;101051.09;4930008;29;20195;-79
2022/05/14 08:27:04;;;;;;;4.07;2.22;;;;;;;11.27;100.00;101062.34;4933370;29;20454;-79
2022/05/14 08:29:35;;;;;;;4.50;1.87;;;;;;;11.29;100.00;101059.00;4933292;29;20059;-79
2022/05/14 08:32:05;;;;;;;2.60;1.73;;;;;;;11.31;100.00;101062.50;4948134;29;20396;-79
2022/05/14 08:34:34;;;;;;;3.00;1.85;;;;;;;11.33;100.00;101065.13;4951640;29;20051;-79
2022/05/14 08:37:02;;;;;;;3.88;1.85;;;;;;;11.32;100.00;101050.44;4950763;28;20412;-79
2022/05/14 08:39:31;;;;;;;3.75;2.15;;;;;;;11.34;100.00;101056.53;4951715;29;20093;-79
2022/05/14 08:42:02;;;;;;;3.28;1.92;;;;;;;11.36;100.00;101041.94;4951483;29;20055;-79
2022/05/14 08:44:33;;;;;;;3.00;2.10;;;;;;;11.35;100.00;101041.88;4951811;29;20521;-79
2022/05/14 08:47:07;;;;;;;3.23;1.60;;;;;;;11.33;100.00;101041.81;4952625;29;20055;-78
2022/05/14 08:49:40;;;;;;;5.25;2.03;;;;;;;11.36;100.00;101031.56;4952178;28;20055;-78
2022/05/14 08:52:22;;;;;;;6.07;2.22;;;;;;;11.38;100.00;101029.88;4952680;29;20047;-78
2022/05/14 08:54:53;;;;;;;3.33;1.80;;;;;;;11.39;100.00;101031.66;4941899;29;20122;-78
2022/05/14 08:57:30;;;;;;;2.50;1.95;;;;;;;11.41;100.00;101027.41;4934009;29;20268;-78
2022/05/14 09:00:00;;;;;;;2.92;2.00;;;;;;;11.43;100.00;101019.66;4932746;29;20131;-79
2022/05/14 09:02:33;;;;;;;3.13;1.90;;;;;;;11.45;100.00;101018.88;4931883;29;20059;-78
2022/05/14 09:05:04;;;;;;;2.45;1.95;;;;;;;11.45;100.00;101018.88;4932031;29;20139;-79
2022/05/14 09:07:33;;;;;;;5.40;2.38;;;;;;;11.42;100.00;101013.59;4932194;29;20103;-79
2022/05/14 09:10:02;;;;;;;5.70;2.03;;;;;;;11.42;100.00;101018.78;4931845;29;20091;-79
2022/05/14 09:12:33;;;;;;;4.82;2.45;;;;;;;11.46;100.00;101005.09;4932235;29;20115;-79
2022/05/14 09:15:06;;;;;;;3.08;1.95;;;;;;;11.50;100.00;101006.06;4924669;29;20130;-79
2022/05/14 09:17:36;;;;;;;3.38;2.42;;;;;;;11.49;100.00;101001.69;4932333;29;20077;-79
2022/05/14 09:20:05;;;;;;;4.32;2.33;;;;;;;11.48;100.00;100998.25;4932365;29;20107;-79
2022/05/14 09:22:42;;;;;;;2.97;1.88;;;;;;;11.47;100.00;100996.47;4931604;29;20075;-79
2022/05/14 09:25:25;;;;;;;3.60;2.60;;;;;;;11.48;100.00;101002.56;4930941;29;20138;-79
2022/05/14 09:27:56;;;;;;;3.35;1.73;;;;;;;11.47;100.00;100987.81;4931661;29;20532;-80
2022/05/14 09:30:29;;;;;;;2.88;2.03;;;;;;;11.48;100.00;100985.28;4934505;29;20147;-79
2022/05/14 09:33:00;;;;;;;3.13;1.95;;;;;;;11.49;100.00;100988.75;4940073;29;20518;-78
2022/05/14 09:35:32;;;;;;;3.95;1.92;;;;;;;11.51;100.00;100985.38;4932765;28;20156;-79
2022/05/14 09:38:13;;;;;;;5.70;1.83;;;;;;;11.55;100.00;100980.28;4948874;29;20055;-78
2022/05/14 09:40:42;;;;;;;5.03;2.05;;;;;;;11.58;100.00;100983.84;4950544;29;20047;-78
2022/05/14 09:43:13;;;;;;;2.90;1.88;;;;;;;11.60;100.00;100976.13;4949373;29;20207;-79
2022/05/14 09:45:45;;;;;;;3.45;2.05;;;;;;;11.63;100.00;100965.81;4950400;29;20504;-79
2022/05/14 09:48:18;;;;;;;3.92;2.17;;;;;;;11.64;100.00;100952.03;4950424;29;20114;-78
2022/05/14 09:50:50;;;;;;;4.07;2.20;;;;;;;11.63;100.00;100940.78;4933949;29;20138;-79
2022/05/14 09:53:28;;;;;;;2.97;2.00;;;;;;;11.63;100.00;100935.59;4934210;29;20119;-78
2022/05/14 09:56:20;;;;;;;3.22;1.88;;;;;;;11.65;100.00;100943.41;4931889;29;20060;-78
2022/05/14 09:59:02;;;;;;;1.92;1.50;;;;;;;11.68;100.00;100948.69;4931064;29;20106;-78
2022/05/14 10:01:34;;;;;;;3.75;1.60;;;;;;;11.73;100.00;100954.91;4929874;29;20130;-78
2022/05/14 10:04:20;;;;;;;3.08;1.70;;;;;;;11.78;100.00;100945.53;4931063;29;20106;-77
2022/05/14 10:06:56;;;;;;;3.38;1.70;;;;;;;11.83;100.00;100951.72;4930647;29;20142;-78
2022/05/14 10:09:34;;;;;;;4.28;1.42;;;;;;;11.88;100.00;100947.56;4930785;29;20060;-78
2022/05/14 10:12:21;;;;;;;3.60;2.10;;;;;;;11.92;100.00;100940.75;4930751;29;20122;-78
2022/05/14 10:15:01;;;;;;;2.83;1.60;;;;;;;11.99;100.00;100952.16;4931593;29;20054;-78
2022/05/14 10:17:47;;;;;;;2.75;1.60;;;;;;;12.03;100.00;100948.81;4931026;29;20469;-78
2022/05/14 10:20:36;;;;;;;1.83;1.48;;;;;;;12.08;100.00;100947.22;4931053;29;20118;-79
2022/05/14 10:29:15;;;;;;;3.38;1.70;;;;;;;12.20;100.00;100944.06;4930647;29;20168;-77
2022/05/14 10:31:54;;;;;;;3.17;1.55;;;;;;;12.24;100.00;100941.59;4930939;29;20564;-77
2022/05/14 10:34:42;;;;;;;1.95;1.52;;;;;;;12.27;100.00;100938.19;4930559;29;20630;-77
2022/05/14 10:37:19;;;;;;;2.38;1.80;;;;;;;12.28;100.00;100940.84;4941779;28;20114;-77
2022/05/14 10:39:57;;;;;;;3.92;1.80;;;;;;;12.30;100.00;100944.34;4949733;29;20047;-78
2022/05/14 10:42:35;;;;;;;3.60;1.73;;;;;;;12.32;100.00;100937.50;4949441;29;20572;-77
2022/05/14 10:45:10;;;;;;;3.42;2.15;;;;;;;12.35;100.00;100932.38;4949901;29;20047;-77
2022/05/14 10:47:45;;;;;;;5.32;2.10;;;;;;;12.36;100.00;100941.00;4950086;29;20090;-76
2022/05/14 10:50:19;;;;;;;4.18;2.20;;;;;;;12.35;100.00;100944.47;4953220;29;20059;-77
2022/05/14 10:52:52;;;;;;;4.55;2.85;;;;;;;12.35;100.00;100942.75;4949871;29;20051;-77
2022/05/14 10:55:38;;;;;;;3.25;2.03;;;;;;;12.35;100.00;100929.78;4950151;29;20086;-77
2022/05/14 10:58:08;;;;;;;4.22;2.25;;;;;;;12.39;100.00;100928.09;4949713;28;20059;-76
2022/05/14 11:00:42;;;;;;;4.05;2.28;;;;;;;12.41;100.00;100930.75;4949711;29;20417;-77
2022/05/14 11:03:16;;;;;;;6.28;1.98;;;;;;;12.42;100.00;100930.81;4949293;29;20506;-76
2022/05/14 11:05:54;;;;;;;4.75;2.42;;;;;;;12.43;100.00;100934.28;4931935;29;20111;-77
2022/05/14 11:08:35;;;;;;;5.03;2.15;;;;;;;12.44;100.00;100941.19;4924105;29;20055;-77
2022/05/14 11:11:07;;;;;;;3.78;2.15;;;;;;;12.46;100.00;100936.94;4930702;29;20142;-77
2022/05/14 11:13:37;;;;;;;5.28;2.30;;;;;;;12.49;100.00;100931.84;4934788;29;20052;-76
2022/05/14 11:16:09;;;;;;;4.28;2.17;;;;;;;12.51;100.00;100927.56;4934622;29;20118;-76
2022/05/14 11:18:49;;;;;;;4.28;2.15;;;;;;;12.53;100.00;100926.75;4922300;29;20048;-76
2022/05/14 11:21:22;;;;;;;3.28;2.00;;;;;;;12.56;100.00;100938.94;4934011;29;20047;-77
2022/05/14 11:23:56;;;;;;;3.17;1.90;;;;;;;12.56;100.00;100925.94;4934550;29;20134;-77
2022/05/14 11:26:26;;;;;;;3.42;2.28;;;;;;;12.58;100.00;100932.06;4934131;29;20055;-77
2022/05/14 11:29:00;;;;;;;4.35;2.65;;;;;;;12.58;100.00;100922.53;4933236;29;20425;-77
2022/05/14 11:31:31;;;;;;;3.65;2.60;;;;;;;12.58;100.00;100919.94;4944750;29;20114;-77
2022/05/14 11:34:03;;;;;;;3.30;2.13;;;;;;;12.59;100.00;100920.81;4953129;29;20047;-76
2022/05/14 11:36:34;;;;;;;3.47;2.00;;;;;;;12.60;100.00;100913.91;4939634;28;20063;-77
2022/05/14 11:39:25;;;;;;;3.72;1.85;;;;;;;12.60;100.00;100925.19;4934130;29;20572;-77
2022/05/14 11:41:55;;;;;;;3.05;2.28;;;;;;;12.61;100.00;100916.53;4933493;29;20497;-77
2022/05/14 11:44:35;;;;;;;3.03;2.03;;;;;;;12.62;100.00;100914.81;4934691;29;20111;-77
2022/05/14 11:47:08;;;;;;;3.70;2.05;;;;;;;12.64;100.00;100916.59;4937590;29;20114;-77
2022/05/14 11:49:44;;;;;;;3.05;1.90;;;;;;;12.67;100.00;100911.50;4934780;29;20123;-77
2022/05/14 11:52:18;;;;;;;3.45;2.10;;;;;;;12.70;100.00;100913.28;4933680;29;20058;-77
2022/05/14 11:54:56;;;;;;;3.13;1.80;;;;;;;12.70;100.00;100915.88;4933785;29;20510;-77
2022/05/14 11:57:28;;;;;;;1.98;1.50;;;;;;;12.70;100.00;100911.56;4932888;29;20106;-77